Airfield :
LOGIN :

Register | Disclaimer

   EN    FR    IT 

 










Legend :    VFR   Marginal VFR   IFR   Intensive IFR   Very Intensive IFR
Visi :
Ceiling :
>= 8 km
>= 3000ft
5 to 8 km
1000 to 3000 ft
1500m to 5 km
500 to 1000 ft
800 to 1500m
200 to 500 ft
< 800m
< 200 ft
Symbols :   Thunderstorms  Fog  Heavy snow  Heavy precipitations  Wind > 20 kt
SIGMETs :     Misc.  Thunderstorms  Icing  Turbulence  Mountain Waves  Volcanic Ashes







- Airport Elevation : 1504 ft
- IATA code : PNA


LEPP - Noain Pamplona

CURRENT METAR :
  • 200630Z 33013KT 290V360 9999 SCT018 BKN025 16/13 Q1017

EXPIRED METARs :
  • 200600Z 32008KT 290V350 9999 SCT018 BKN025 16/13 Q1017
  • 200530Z 32007KT 290V350 9999 SCT017 BKN025 16/13 Q1017
  • 200500Z 32007KT 290V350 9999 SCT017 BKN025 15/13 Q1017
  • 200430Z 32006KT 9999 SCT020 SCT028 15/13 Q1016
  • 200400Z 32007KT 290V350 9999 SCT020 SCT028 15/12 Q1016

TAF TAF LEPP
Valid from the 20 at 03:00 until the 21 at 03:00 UTC


200200Z 2003/2103 35009KT 9999 SCT020 BKN030 TX23/2015Z TN12/2005Z
PROB40
TEMPO 2003/2009 BKN014
PROB30
TEMPO 2003/2009 3000 BR BKN005 BKN010 BKN014
PROB40
TEMPO 2011/2021 36015G25KT
TEMPO 2018/2103 3000 RA SHRA BKN014 SCT030TCU
PROB40
TEMPO 2018/2103 3000 TSRA BKN014 SCT030CB
No reported NOTAMs for that airfield.



MET'MAP, your aeronautical weather chart ! - Copyright ORBIFLY December 2007 - Disclaimer

ORBIFLY MET'MAP TEAM :

Programming & Development : Alexandra Zaïnal
Concept & Development : Baudouin d'Aumeries
Co-Development & Prog : Marc-Olivier Méhu
Technical & hardware support : Manuel Goepfert

Contact : metmap@orbifly.com




SOURCES & CREDITS :

   NOAA